createdAt,value
2018-08-31T00:02:08.571Z,9.80
2018-08-31T00:04:48.102Z,9.70
2018-08-31T00:07:30.633Z,9.70
2018-08-31T00:12:12.864Z,9.70
2018-08-31T00:14:41.226Z,9.70
2018-08-31T00:17:09.550Z,9.50
2018-08-31T00:19:37.986Z,9.50
2018-08-31T00:22:06.345Z,9.50
2018-08-31T00:24:45.822Z,9.60
2018-08-31T00:27:25.541Z,9.50
2018-08-31T00:30:05.121Z,9.40
2018-08-31T00:32:45.442Z,9.30
2018-08-31T00:39:28.239Z,9.10
2018-08-31T00:44:11.504Z,9.10
2018-08-31T00:46:40.034Z,8.90
2018-08-31T00:49:08.383Z,9.00
2018-08-31T00:51:36.760Z,8.90
2018-08-31T00:54:05.284Z,8.90
2018-08-31T00:56:33.701Z,8.80
2018-08-31T00:59:02.252Z,8.80
2018-08-31T01:01:30.729Z,8.90
2018-08-31T01:03:59.088Z,9.00
2018-08-31T01:06:27.622Z,8.90
2018-08-31T01:08:56.079Z,8.90
2018-08-31T01:11:24.503Z,8.80
2018-08-31T01:13:52.868Z,8.60
2018-08-31T01:16:21.224Z,8.40
2018-08-31T01:18:49.588Z,8.40
2018-08-31T01:21:17.986Z,8.30
2018-08-31T01:23:46.806Z,8.30
2018-08-31T01:26:15.170Z,8.20
2018-08-31T01:28:43.486Z,8.10
2018-08-31T01:31:11.940Z,8.10
2018-08-31T01:33:40.392Z,8.10
2018-08-31T01:36:08.854Z,7.90
2018-08-31T01:38:37.349Z,7.90
2018-08-31T01:41:05.684Z,7.90
2018-08-31T01:43:34.004Z,7.90
2018-08-31T01:46:02.421Z,7.80
2018-08-31T01:48:30.829Z,7.70
2018-08-31T01:51:04.560Z,7.70
2018-08-31T01:53:32.927Z,7.70
2018-08-31T01:56:01.353Z,7.70
2018-08-31T01:58:29.690Z,7.60
2018-08-31T02:00:58.110Z,7.60
2018-08-31T02:03:26.609Z,7.60
2018-08-31T02:05:55.088Z,7.60
2018-08-31T02:08:23.510Z,7.50
2018-08-31T02:10:52.041Z,7.50
2018-08-31T02:13:20.374Z,7.50
2018-08-31T02:15:48.914Z,7.40
2018-08-31T02:18:17.476Z,7.30
2018-08-31T02:20:45.952Z,7.40
2018-08-31T02:23:14.333Z,7.30
2018-08-31T02:25:42.722Z,7.30
2018-08-31T02:28:11.062Z,7.20
2018-08-31T02:30:39.589Z,7.20
2018-08-31T02:33:08.082Z,7.20
2018-08-31T02:35:36.613Z,7.10
2018-08-31T02:38:05.495Z,7.20
2018-08-31T02:40:33.982Z,7.10
2018-08-31T02:43:02.339Z,7.20
2018-08-31T02:45:30.665Z,7.10
2018-08-31T02:47:58.986Z,7.20
2018-08-31T02:50:27.320Z,7.10
2018-08-31T02:52:55.633Z,7.10
2018-08-31T02:55:24.141Z,7.10
2018-08-31T02:57:52.475Z,7.10
2018-08-31T03:00:31.629Z,7.10
2018-08-31T03:03:00.215Z,7.20
2018-08-31T03:05:28.693Z,7.20
2018-08-31T03:07:57.176Z,7.10
2018-08-31T03:10:25.848Z,7.00
2018-08-31T03:12:54.371Z,7.00
2018-08-31T03:15:22.681Z,7.10
2018-08-31T03:17:51.089Z,7.10
2018-08-31T03:20:19.406Z,7.00
2018-08-31T03:22:47.825Z,7.00
2018-08-31T03:25:16.184Z,7.00
2018-08-31T03:27:44.583Z,7.00
2018-08-31T03:30:12.941Z,7.00
2018-08-31T03:32:41.428Z,7.00
2018-08-31T03:35:09.889Z,7.10
2018-08-31T03:37:38.303Z,7.20
2018-08-31T03:40:06.823Z,7.20
2018-08-31T03:42:35.381Z,7.20
2018-08-31T03:45:03.857Z,7.30
2018-08-31T03:47:32.250Z,7.40
2018-08-31T03:50:00.753Z,7.40
2018-08-31T03:52:29.182Z,7.40
2018-08-31T03:54:57.907Z,7.50
2018-08-31T03:57:26.343Z,7.50
2018-08-31T03:59:54.941Z,7.60
2018-08-31T04:02:23.447Z,7.50
2018-08-31T04:04:52.040Z,7.50
2018-08-31T04:07:20.490Z,7.50
2018-08-31T04:09:49.033Z,7.60
2018-08-31T04:12:17.427Z,7.70
2018-08-31T04:14:45.846Z,7.70
2018-08-31T04:17:14.180Z,7.60
2018-08-31T04:19:42.557Z,7.50
2018-08-31T04:22:10.966Z,7.50
2018-08-31T04:24:39.331Z,7.60
2018-08-31T04:27:07.774Z,7.70
2018-08-31T04:29:36.147Z,7.70
2018-08-31T04:32:04.589Z,7.60
2018-08-31T04:34:33.064Z,7.60
2018-08-31T04:37:01.535Z,7.60
2018-08-31T04:39:29.999Z,7.60
2018-08-31T04:41:59.527Z,7.50
2018-08-31T04:44:28.002Z,7.60
2018-08-31T04:46:56.505Z,7.60
2018-08-31T04:49:24.950Z,7.60
2018-08-31T04:51:53.501Z,7.50
2018-08-31T04:54:22.012Z,7.50
2018-08-31T04:56:50.500Z,7.50
2018-08-31T04:59:19.017Z,7.50
2018-08-31T05:01:47.499Z,7.50
2018-08-31T05:04:15.991Z,7.60
2018-08-31T05:06:44.480Z,7.60
2018-08-31T05:09:13.205Z,7.60
2018-08-31T05:11:41.695Z,7.60
2018-08-31T05:14:10.070Z,7.60
2018-08-31T05:16:38.687Z,7.70
2018-08-31T05:19:07.169Z,7.60
2018-08-31T05:21:35.531Z,7.70
2018-08-31T05:24:04.066Z,7.70
2018-08-31T05:26:32.509Z,7.70
2018-08-31T05:29:00.980Z,7.80
2018-08-31T05:31:29.443Z,7.80
2018-08-31T05:33:57.970Z,7.80
2018-08-31T05:36:26.486Z,7.90
2018-08-31T05:38:55.292Z,8.00
2018-08-31T05:41:24.652Z,8.10
2018-08-31T05:43:53.195Z,8.10
2018-08-31T05:46:21.689Z,8.10
2018-08-31T05:48:50.124Z,8.20
2018-08-31T05:51:18.740Z,8.30
2018-08-31T05:53:47.230Z,8.40
2018-08-31T05:56:15.807Z,8.40
2018-08-31T05:58:44.250Z,8.50
2018-08-31T06:01:12.779Z,8.60
2018-08-31T06:03:42.042Z,8.70
2018-08-31T06:06:10.635Z,8.70
2018-08-31T06:08:39.146Z,8.80
2018-08-31T06:11:07.606Z,8.90
2018-08-31T06:13:36.130Z,9.00
2018-08-31T06:16:04.578Z,9.10
2018-08-31T06:18:33.493Z,9.30
2018-08-31T06:21:03.090Z,9.40
2018-08-31T06:23:31.408Z,9.50
2018-08-31T06:25:59.933Z,9.60
2018-08-31T06:28:28.504Z,9.70
2018-08-31T06:30:56.898Z,9.90
2018-08-31T06:33:25.377Z,9.90
2018-08-31T06:35:53.863Z,10.00
2018-08-31T06:38:22.397Z,10.10
2018-08-31T06:40:50.918Z,10.30
2018-08-31T06:43:19.379Z,10.40
2018-08-31T06:45:47.894Z,10.60
2018-08-31T06:48:16.380Z,10.70
2018-08-31T06:50:44.832Z,10.90
2018-08-31T06:53:13.270Z,11.00
2018-08-31T06:55:41.720Z,11.20
2018-08-31T06:58:10.193Z,11.30
2018-08-31T07:00:38.719Z,11.40
2018-08-31T07:03:07.163Z,11.50
2018-08-31T07:05:35.630Z,11.60
2018-08-31T07:08:05.302Z,11.60
2018-08-31T07:10:33.790Z,11.70
2018-08-31T07:13:02.205Z,11.70
2018-08-31T07:15:30.727Z,11.80
2018-08-31T07:17:59.268Z,11.90
2018-08-31T07:20:27.732Z,12.10
2018-08-31T07:22:56.209Z,12.00
2018-08-31T07:25:24.678Z,12.00
2018-08-31T07:27:53.133Z,12.00
2018-08-31T07:30:21.567Z,12.20
2018-08-31T07:32:50.025Z,12.10
2018-08-31T07:35:18.772Z,12.30
2018-08-31T07:37:47.254Z,12.40
2018-08-31T07:40:15.708Z,12.40
2018-08-31T07:42:44.201Z,12.60
2018-08-31T07:45:12.680Z,12.80
2018-08-31T07:47:41.144Z,12.90
2018-08-31T07:50:09.570Z,12.90
2018-08-31T07:52:38.939Z,13.00
2018-08-31T07:55:08.425Z,13.20
2018-08-31T07:57:36.882Z,13.20
2018-08-31T08:00:05.375Z,13.40
2018-08-31T08:02:33.851Z,13.60
2018-08-31T08:05:02.294Z,13.80
2018-08-31T08:07:30.816Z,14.10
2018-08-31T08:09:59.203Z,14.40
2018-08-31T08:12:27.624Z,14.50
2018-08-31T08:14:56.063Z,14.50
2018-08-31T08:17:24.537Z,14.70
2018-08-31T08:19:53.006Z,14.70
2018-08-31T08:22:21.579Z,14.80
2018-08-31T08:24:49.898Z,14.90
2018-08-31T08:27:18.335Z,15.10
2018-08-31T08:29:46.708Z,15.10
2018-08-31T08:32:15.084Z,15.30
2018-08-31T08:34:43.415Z,15.60
2018-08-31T08:37:11.958Z,15.40
2018-08-31T08:39:40.454Z,15.20
2018-08-31T08:42:08.985Z,15.00
2018-08-31T08:44:37.429Z,15.30
2018-08-31T08:47:05.852Z,15.30
2018-08-31T08:49:34.337Z,15.50
2018-08-31T08:52:02.790Z,15.90
2018-08-31T08:54:31.254Z,15.80
2018-08-31T08:56:59.718Z,15.50
2018-08-31T08:59:28.179Z,15.00
2018-08-31T09:01:56.641Z,14.50
2018-08-31T09:04:25.507Z,14.50
2018-08-31T09:06:53.970Z,14.40
2018-08-31T09:09:22.475Z,14.20
2018-08-31T09:11:50.978Z,14.00
2018-08-31T09:14:19.433Z,14.00
2018-08-31T09:16:48.867Z,13.90
2018-08-31T09:19:17.313Z,14.00
2018-08-31T09:21:45.719Z,14.00
2018-08-31T09:24:14.206Z,14.10
2018-08-31T09:26:42.667Z,14.20
2018-08-31T09:29:11.063Z,14.20
2018-08-31T09:31:39.543Z,14.40
2018-08-31T09:34:07.988Z,14.80
2018-08-31T09:36:36.403Z,15.20
2018-08-31T09:39:07.494Z,15.10
2018-08-31T09:41:35.927Z,14.70
2018-08-31T09:44:04.317Z,14.60
2018-08-31T09:46:32.730Z,14.10
2018-08-31T09:49:01.105Z,13.80
2018-08-31T09:51:29.520Z,13.80
2018-08-31T09:53:57.939Z,14.10
2018-08-31T09:56:26.375Z,14.30
2018-08-31T09:58:54.768Z,14.60
2018-08-31T10:01:36.341Z,14.80
2018-08-31T10:04:04.934Z,14.90
2018-08-31T10:06:34.076Z,14.80
2018-08-31T10:09:02.556Z,14.90
2018-08-31T10:11:31.033Z,15.00
2018-08-31T10:13:59.515Z,15.00
2018-08-31T10:16:28.005Z,15.00
2018-08-31T10:18:56.448Z,15.10
2018-08-31T10:21:25.050Z,15.30
2018-08-31T10:23:53.654Z,15.90
2018-08-31T10:26:22.162Z,16.00
2018-08-31T10:28:50.692Z,16.30
2018-08-31T10:31:19.158Z,16.40
2018-08-31T10:33:47.663Z,16.00
2018-08-31T10:36:16.134Z,15.50
2018-08-31T10:38:44.613Z,15.10
2018-08-31T10:41:13.196Z,15.00
2018-08-31T10:43:41.643Z,14.60
2018-08-31T10:46:10.121Z,14.70
2018-08-31T10:48:38.720Z,14.90
2018-08-31T10:51:07.242Z,14.80
2018-08-31T10:53:35.808Z,14.70
2018-08-31T10:56:04.408Z,14.70
2018-08-31T10:58:39.394Z,14.90
2018-08-31T11:01:07.830Z,14.90
2018-08-31T11:03:36.392Z,15.10
2018-08-31T11:06:04.848Z,15.10
2018-08-31T11:08:33.340Z,15.30
2018-08-31T11:11:01.837Z,15.60
2018-08-31T11:13:30.316Z,15.80
2018-08-31T11:15:58.771Z,16.00
2018-08-31T11:18:27.226Z,16.10
2018-08-31T11:20:55.771Z,16.20
2018-08-31T11:23:24.226Z,16.10
2018-08-31T11:25:52.712Z,15.80
2018-08-31T11:28:21.175Z,15.60
2018-08-31T11:30:50.880Z,15.50
2018-08-31T11:33:19.286Z,15.50
2018-08-31T11:35:47.739Z,15.70
2018-08-31T11:38:16.255Z,16.00
2018-08-31T11:40:44.686Z,16.30
2018-08-31T11:43:13.170Z,16.30
2018-08-31T11:45:41.631Z,16.20
2018-08-31T11:48:10.061Z,16.20
2018-08-31T11:50:38.583Z,16.20
2018-08-31T11:53:07.146Z,16.20
2018-08-31T11:55:35.686Z,15.80
2018-08-31T11:58:04.216Z,16.00
2018-08-31T12:00:32.766Z,16.10
2018-08-31T12:03:01.209Z,15.90
2018-08-31T12:05:29.631Z,16.30
2018-08-31T12:07:58.084Z,16.70
2018-08-31T12:10:26.517Z,16.90
2018-08-31T12:12:54.934Z,16.80
2018-08-31T12:15:23.379Z,17.20
2018-08-31T12:17:51.831Z,17.40
2018-08-31T12:20:20.203Z,17.60
2018-08-31T12:22:48.638Z,17.60
2018-08-31T12:25:17.079Z,17.70
2018-08-31T12:27:46.037Z,18.00
2018-08-31T12:30:15.504Z,18.20
2018-08-31T12:32:43.969Z,17.90
2018-08-31T12:35:12.408Z,17.50
2018-08-31T12:37:40.858Z,17.30
2018-08-31T12:40:09.318Z,17.20
2018-08-31T12:42:37.821Z,16.70
2018-08-31T12:45:06.599Z,16.70
2018-08-31T12:47:35.209Z,16.80
2018-08-31T12:50:03.665Z,17.30
2018-08-31T12:52:32.126Z,17.80
2018-08-31T12:55:00.590Z,18.20
2018-08-31T12:57:29.109Z,18.50
2018-08-31T13:00:00.544Z,18.40
2018-08-31T13:02:30.361Z,18.50
2018-08-31T13:04:58.918Z,18.30
2018-08-31T13:07:27.418Z,17.70
2018-08-31T13:09:56.126Z,17.40
2018-08-31T13:12:24.732Z,16.90
2018-08-31T13:14:53.330Z,16.30
2018-08-31T13:17:21.843Z,16.10
2018-08-31T13:19:50.389Z,15.90
2018-08-31T13:22:18.878Z,16.70
2018-08-31T13:24:47.776Z,17.30
2018-08-31T13:27:16.271Z,18.00
2018-08-31T13:29:44.773Z,18.40
2018-08-31T13:32:13.291Z,18.40
2018-08-31T13:34:41.782Z,18.20
2018-08-31T13:37:10.215Z,17.80
2018-08-31T13:39:38.720Z,17.70
2018-08-31T13:42:06.926Z,18.30
2018-08-31T13:44:35.453Z,19.10
2018-08-31T13:47:03.995Z,19.30
2018-08-31T13:49:32.460Z,19.20
2018-08-31T13:52:00.992Z,19.80
2018-08-31T13:54:29.460Z,19.80
2018-08-31T13:56:57.930Z,19.50
2018-08-31T13:59:26.436Z,20.00
2018-08-31T14:01:54.988Z,20.30
2018-08-31T14:04:23.587Z,19.80
2018-08-31T14:06:52.089Z,20.40
2018-08-31T14:09:27.256Z,20.20
2018-08-31T14:11:55.760Z,20.10
2018-08-31T14:14:24.219Z,20.30
2018-08-31T14:16:52.691Z,20.20
2018-08-31T14:19:21.147Z,20.40
2018-08-31T14:21:49.662Z,20.70
2018-08-31T14:24:18.162Z,20.60
2018-08-31T14:26:46.687Z,20.70
2018-08-31T14:29:15.215Z,20.80
2018-08-31T14:31:43.699Z,20.90
2018-08-31T14:34:12.170Z,21.10
2018-08-31T14:36:40.765Z,21.50
2018-08-31T14:39:11.042Z,20.60
2018-08-31T14:41:39.513Z,20.70
2018-08-31T14:44:08.699Z,19.90
2018-08-31T14:46:36.976Z,19.60
2018-08-31T14:49:06.062Z,19.30
2018-08-31T14:51:34.508Z,19.60
2018-08-31T14:54:03.027Z,20.30
2018-08-31T14:56:31.627Z,19.60
2018-08-31T14:59:00.070Z,19.20
2018-08-31T15:01:28.492Z,19.30
2018-08-31T15:03:56.972Z,19.90
2018-08-31T15:06:25.340Z,20.20
2018-08-31T15:08:53.844Z,20.50
2018-08-31T15:11:22.284Z,20.00
2018-08-31T15:13:50.715Z,18.70
2018-08-31T15:16:19.166Z,18.10
2018-08-31T15:18:48.545Z,18.40
2018-08-31T15:21:16.984Z,19.00
2018-08-31T15:23:45.420Z,19.50
2018-08-31T15:26:13.855Z,19.20
2018-08-31T15:28:42.300Z,18.80
2018-08-31T15:31:10.834Z,18.50
2018-08-31T15:33:39.285Z,19.30
2018-08-31T15:36:07.762Z,19.80
2018-08-31T15:38:36.213Z,19.80
2018-08-31T15:41:04.772Z,18.80
2018-08-31T15:43:33.198Z,18.60
2018-08-31T15:46:02.076Z,18.70
2018-08-31T15:48:31.019Z,18.60
2018-08-31T15:50:59.470Z,19.00
2018-08-31T15:53:28.015Z,19.00
2018-08-31T15:55:56.558Z,18.80
2018-08-31T15:58:25.035Z,18.70
2018-08-31T16:00:53.517Z,18.70
2018-08-31T16:03:21.986Z,18.60
2018-08-31T16:05:50.479Z,18.60
2018-08-31T16:08:18.971Z,18.20
2018-08-31T16:10:47.422Z,17.90
2018-08-31T16:13:15.935Z,17.60
2018-08-31T16:15:44.443Z,16.90
2018-08-31T16:18:12.968Z,17.00
2018-08-31T16:20:42.333Z,17.20
2018-08-31T16:23:10.786Z,17.40
2018-08-31T16:25:39.258Z,17.60
2018-08-31T16:28:07.767Z,17.30
2018-08-31T16:30:36.233Z,16.90
2018-08-31T16:33:04.843Z,17.00
2018-08-31T16:35:33.480Z,17.10
2018-08-31T16:38:02.035Z,17.10
2018-08-31T16:40:30.552Z,17.30
2018-08-31T16:42:59.006Z,17.50
2018-08-31T16:45:27.450Z,17.40
2018-08-31T16:47:55.855Z,17.70
2018-08-31T16:50:24.292Z,17.60
2018-08-31T16:52:52.946Z,16.80
2018-08-31T16:55:21.471Z,16.20
2018-08-31T16:57:49.948Z,15.70
2018-08-31T17:00:18.604Z,15.30
2018-08-31T17:02:47.051Z,15.20
2018-08-31T17:05:15.501Z,15.50
2018-08-31T17:07:44.349Z,15.80
2018-08-31T17:10:12.823Z,15.90
2018-08-31T17:12:41.289Z,16.00
2018-08-31T17:15:09.902Z,15.60
2018-08-31T17:17:38.368Z,15.40
2018-08-31T17:20:07.264Z,15.10
2018-08-31T17:22:35.745Z,14.90
2018-08-31T17:25:04.670Z,14.80
2018-08-31T17:27:40.321Z,14.70
2018-08-31T17:30:14.410Z,14.60
2018-08-31T17:32:48.330Z,14.50
2018-08-31T17:35:22.194Z,14.20
2018-08-31T17:37:50.824Z,14.00
2018-08-31T17:40:19.414Z,13.70
2018-08-31T17:42:47.893Z,13.40
2018-08-31T17:45:18.877Z,13.30
2018-08-31T17:47:47.591Z,13.10
2018-08-31T17:50:16.342Z,12.90
2018-08-31T17:52:44.901Z,12.70
2018-08-31T17:55:13.472Z,12.60
2018-08-31T17:57:41.904Z,12.40
2018-08-31T18:00:10.834Z,12.20
2018-08-31T18:02:39.247Z,12.10
2018-08-31T18:05:07.711Z,12.10
2018-08-31T18:07:36.186Z,12.00
2018-08-31T18:10:04.690Z,12.00
2018-08-31T18:12:33.134Z,11.90
2018-08-31T18:15:01.561Z,11.80
2018-08-31T18:17:30.000Z,11.60
2018-08-31T18:19:58.494Z,11.50
2018-08-31T18:22:27.785Z,11.40
2018-08-31T18:24:56.258Z,11.40
2018-08-31T18:27:24.678Z,11.30
2018-08-31T18:29:53.202Z,11.30
2018-08-31T18:32:21.713Z,11.20
2018-08-31T18:34:50.148Z,11.20
2018-08-31T18:37:18.606Z,11.00
2018-08-31T18:39:47.137Z,10.80
2018-08-31T18:42:15.543Z,10.60
2018-08-31T18:44:43.977Z,10.40
2018-08-31T18:47:12.488Z,10.30
2018-08-31T18:49:40.955Z,10.10
2018-08-31T18:52:09.366Z,9.90
2018-08-31T18:54:37.866Z,9.80
2018-08-31T18:57:06.382Z,9.70
2018-08-31T18:59:34.844Z,9.60
2018-08-31T19:02:03.358Z,9.50
2018-08-31T19:04:31.826Z,9.40
2018-08-31T19:07:00.334Z,9.30
2018-08-31T19:09:28.768Z,9.20
2018-08-31T19:11:57.219Z,9.10
2018-08-31T19:14:25.785Z,8.90
2018-08-31T19:16:54.248Z,8.70
2018-08-31T19:19:22.888Z,8.60
2018-08-31T19:21:51.239Z,8.50
2018-08-31T19:24:19.711Z,8.40
2018-08-31T19:26:48.317Z,8.50
2018-08-31T19:29:16.809Z,8.40
2018-08-31T19:31:45.220Z,8.40
2018-08-31T19:34:13.821Z,8.30
2018-08-31T19:36:42.224Z,8.30
2018-08-31T19:39:11.931Z,8.40
2018-08-31T19:41:40.324Z,8.30
2018-08-31T19:44:08.835Z,8.20
2018-08-31T19:46:37.360Z,8.20
2018-08-31T19:49:05.818Z,8.10
2018-08-31T19:51:34.255Z,8.00
2018-08-31T19:54:03.483Z,7.90
2018-08-31T19:56:31.986Z,7.90
2018-08-31T19:59:00.426Z,7.90
2018-08-31T20:01:28.904Z,7.80
2018-08-31T20:03:57.406Z,7.70
2018-08-31T20:06:26.039Z,7.80
2018-08-31T20:08:54.422Z,7.70
2018-08-31T20:11:22.946Z,7.70
2018-08-31T20:13:51.423Z,7.60
2018-08-31T20:16:20.020Z,7.50
2018-08-31T20:18:48.428Z,7.50
2018-08-31T20:21:16.826Z,7.50
2018-08-31T20:23:45.378Z,7.40
2018-08-31T20:26:13.942Z,7.50
2018-08-31T20:28:42.375Z,7.50
2018-08-31T20:31:10.850Z,7.50
2018-08-31T20:33:39.330Z,7.60
2018-08-31T20:36:07.813Z,7.50
2018-08-31T20:38:36.316Z,7.40
2018-08-31T20:41:04.810Z,7.40
2018-08-31T20:43:33.343Z,7.50
2018-08-31T20:46:01.876Z,7.50
2018-08-31T20:48:30.371Z,7.40
2018-08-31T20:50:58.851Z,7.50
2018-08-31T20:53:27.345Z,7.60
2018-08-31T20:55:55.811Z,7.50
2018-08-31T20:58:24.303Z,7.50
2018-08-31T21:00:52.771Z,7.50
2018-08-31T21:03:21.211Z,7.40
2018-08-31T21:05:49.581Z,7.30
2018-08-31T21:08:18.083Z,7.30
2018-08-31T21:10:46.517Z,7.10
2018-08-31T21:13:14.962Z,7.10
2018-08-31T21:15:43.427Z,7.10
2018-08-31T21:18:11.937Z,7.00
2018-08-31T21:20:40.373Z,6.90
2018-08-31T21:23:08.850Z,6.80
2018-08-31T21:25:37.270Z,6.80
2018-08-31T21:28:05.700Z,6.90
2018-08-31T21:30:34.059Z,6.80
2018-08-31T21:33:02.501Z,6.70
2018-08-31T21:35:30.959Z,6.70
2018-08-31T21:37:59.282Z,6.70
2018-08-31T21:40:27.876Z,6.70
2018-08-31T21:42:56.292Z,6.60
2018-08-31T21:45:24.762Z,6.60
2018-08-31T21:47:53.228Z,6.60
2018-08-31T21:50:21.776Z,6.60
2018-08-31T21:52:50.218Z,6.50
2018-08-31T21:55:18.733Z,6.50
2018-08-31T21:57:47.112Z,6.50
2018-08-31T22:00:18.328Z,6.40
2018-08-31T22:02:47.058Z,6.30
2018-08-31T22:05:15.589Z,6.20
2018-08-31T22:07:44.214Z,6.20
2018-08-31T22:10:12.728Z,6.30
2018-08-31T22:12:41.284Z,6.30
2018-08-31T22:15:13.442Z,6.20
2018-08-31T22:17:41.900Z,6.20
2018-08-31T22:20:10.388Z,6.30
2018-08-31T22:22:38.837Z,6.20
2018-08-31T22:25:07.509Z,6.20
2018-08-31T22:27:35.983Z,6.10
2018-08-31T22:30:04.610Z,6.20
2018-08-31T22:32:33.105Z,6.10
2018-08-31T22:35:01.583Z,6.10
2018-08-31T22:37:30.080Z,6.00
2018-08-31T22:39:58.545Z,6.10
2018-08-31T22:42:26.988Z,6.10
2018-08-31T22:44:55.429Z,6.10
2018-08-31T22:47:23.973Z,6.00
2018-08-31T22:49:52.407Z,5.90
2018-08-31T22:52:20.918Z,5.90
2018-08-31T22:54:49.586Z,5.90
2018-08-31T22:57:18.010Z,5.90
2018-08-31T22:59:46.396Z,5.90
2018-08-31T23:02:14.937Z,6.00
2018-08-31T23:04:43.343Z,6.00
2018-08-31T23:07:16.891Z,6.00
2018-08-31T23:09:45.554Z,5.80
2018-08-31T23:12:14.071Z,5.80
2018-08-31T23:14:42.475Z,5.70
2018-08-31T23:17:10.918Z,5.70
2018-08-31T23:19:39.369Z,5.80
2018-08-31T23:22:07.816Z,5.70
2018-08-31T23:24:36.328Z,5.70
2018-08-31T23:27:04.775Z,5.70
2018-08-31T23:29:33.274Z,5.60
2018-08-31T23:32:01.775Z,5.50
2018-08-31T23:34:30.296Z,5.40
2018-08-31T23:36:58.761Z,5.50
2018-08-31T23:39:27.243Z,5.50
2018-08-31T23:41:55.695Z,5.50
2018-08-31T23:44:24.180Z,5.50
2018-08-31T23:46:52.643Z,5.40
2018-08-31T23:49:21.126Z,5.40
2018-08-31T23:51:49.599Z,5.40
2018-08-31T23:54:18.097Z,5.30
2018-08-31T23:56:46.706Z,5.30
2018-08-31T23:59:15.284Z,5.30
